Time;durP1;ratioP1;P1;durP2;ratioP2;P2;SDS_P1;SDS_P2;PMS_P1;PMS_P2;Temp;Humidity;BMP_temperature;BMP_pressure;BME280_temperature;BME280_humidity;BME280_pressure;Samples;Min_cycle;Max_cycle;Signal;HPM_P1;HPM_P2
2023/10/23 00:00:54;;;;;;;1.70;1.60;;;7.40;99.90;;;;;;5126935;27;20129;-83
2023/10/23 00:03:19;;;;;;;6.22;2.42;;;7.40;99.90;;;;;;5093135;27;20034;-82
2023/10/23 00:05:47;;;;;;;4.63;1.70;;;8.20;99.90;;;;;;5111891;27;20037;-83
2023/10/23 00:08:13;;;;;;;3.65;2.53;;;7.40;99.90;;;;;;5130034;27;20510;-82
2023/10/23 00:10:38;;;;;;;4.30;2.13;;;7.40;99.90;;;;;;5125617;27;20074;-83
2023/10/23 00:13:04;;;;;;;3.08;2.25;;;7.40;99.90;;;;;;5125975;27;20030;-83
2023/10/23 00:15:29;;;;;;;3.33;2.17;;;7.30;99.90;;;;;;5109842;28;20038;-83
2023/10/23 00:17:55;;;;;;;3.05;2.30;;;7.40;99.90;;;;;;5123446;27;20086;-83
2023/10/23 00:20:21;;;;;;;3.33;2.50;;;9.10;99.90;;;;;;5113408;27;20065;-83
2023/10/23 00:22:46;;;;;;;2.95;2.33;;;7.80;99.90;;;;;;5114500;27;20045;-83
2023/10/23 00:25:13;;;;;;;2.83;1.95;;;9.50;99.90;;;;;;5131594;27;20462;-83
2023/10/23 00:27:43;;;;;;;7.38;2.22;;;7.40;99.90;;;;;;5134014;27;20032;-82
2023/10/23 00:30:09;;;;;;;4.00;2.35;;;7.40;99.90;;;;;;5118281;27;20074;-83
2023/10/23 00:32:34;;;;;;;4.80;2.50;;;7.60;99.90;;;;;;5134779;27;20067;-83
2023/10/23 00:35:00;;;;;;;5.30;2.47;;;7.30;99.90;;;;;;5118395;27;20087;-83
2023/10/23 00:37:26;;;;;;;2.53;2.33;;;7.40;99.90;;;;;;5116718;27;20505;-83
2023/10/23 00:39:51;;;;;;;2.72;2.35;;;7.40;99.90;;;;;;5134670;27;20050;-83
2023/10/23 00:42:17;;;;;;;3.17;2.42;;;7.40;99.90;;;;;;5108805;27;20034;-83
2023/10/23 00:44:42;;;;;;;2.78;1.85;;;7.00;99.90;;;;;;5127096;27;20490;-83
2023/10/23 00:47:09;;;;;;;5.32;2.35;;;8.90;99.90;;;;;;5108102;27;20066;-83
2023/10/23 00:49:35;;;;;;;4.10;2.40;;;7.30;99.90;;;;;;5110524;27;20095;-83
2023/10/23 00:52:02;;;;;;;4.78;2.50;;;7.30;99.90;;;;;;5127090;27;20035;-83
2023/10/23 00:54:28;;;;;;;2.90;2.58;;;7.30;99.90;;;;;;5093847;27;20072;-83
2023/10/23 00:56:55;;;;;;;4.60;2.60;;;7.30;99.90;;;;;;5125064;27;20092;-83
2023/10/23 00:59:21;;;;;;;3.47;2.80;;;7.30;99.90;;;;;;5110263;27;20130;-82
2023/10/23 01:01:47;;;;;;;6.90;2.78;;;7.30;99.90;;;;;;5123204;27;20133;-83
2023/10/23 01:04:13;;;;;;;5.43;2.70;;;7.30;99.90;;;;;;5109514;27;20081;-83
2023/10/23 01:06:39;;;;;;;5.78;2.65;;;7.30;99.90;;;;;;5108951;27;20060;-83
2023/10/23 01:09:05;;;;;;;4.63;2.60;;;7.30;99.90;;;;;;5111578;27;20039;-83
2023/10/23 01:11:32;;;;;;;2.80;2.40;;;7.20;99.90;;;;;;5126658;27;20030;-82
2023/10/23 01:13:58;;;;;;;2.65;2.45;;;7.20;99.90;;;;;;5116860;27;20034;-82
2023/10/23 01:16:24;;;;;;;4.68;2.75;;;7.70;99.90;;;;;;5136137;27;20496;-83
2023/10/23 01:18:50;;;;;;;5.65;2.83;;;7.10;99.90;;;;;;5124117;27;20356;-83
2023/10/23 01:21:16;;;;;;;3.45;2.42;;;7.10;99.90;;;;;;5116571;27;20046;-83
2023/10/23 01:23:44;;;;;;;4.68;2.45;;;9.20;99.90;;;;;;5115673;27;20031;-84
2023/10/23 01:26:09;;;;;;;7.60;2.63;;;7.10;99.90;;;;;;5132162;27;20557;-83
2023/10/23 01:28:35;;;;;;;5.95;2.63;;;7.10;99.90;;;;;;5111315;27;20054;-83
2023/10/23 01:31:00;;;;;;;5.20;2.80;;;9.40;99.90;;;;;;5113302;27;20039;-84
2023/10/23 01:33:26;;;;;;;4.55;2.47;;;7.10;99.90;;;;;;5105313;27;20066;-83
2023/10/23 01:35:52;;;;;;;2.60;2.40;;;7.10;99.90;;;;;;5132546;27;20030;-83
2023/10/23 01:38:18;;;;;;;3.22;2.42;;;7.10;99.90;;;;;;5116249;27;20039;-83
2023/10/23 01:40:43;;;;;;;3.08;2.78;;;7.10;99.90;;;;;;5110198;27;20743;-83
2023/10/23 01:43:09;;;;;;;3.08;2.78;;;7.10;99.90;;;;;;5126555;27;20066;-84
2023/10/23 01:45:35;;;;;;;3.13;2.55;;;7.00;99.90;;;;;;5124845;27;20046;-83
2023/10/23 01:48:01;;;;;;;5.85;2.60;;;9.40;99.90;;;;;;5124303;27;20042;-83
2023/10/23 01:50:26;;;;;;;3.40;2.78;;;9.30;99.90;;;;;;5105138;27;20446;-83
2023/10/23 01:52:52;;;;;;;3.30;2.95;;;6.90;99.90;;;;;;5121961;27;20089;-83
2023/10/23 01:55:18;;;;;;;2.78;2.58;;;7.30;99.90;;;;;;5123597;27;20527;-82
2023/10/23 01:57:43;;;;;;;3.15;2.80;;;8.80;99.90;;;;;;5125288;27;20047;-84
2023/10/23 02:00:10;;;;;;;4.13;2.78;;;8.30;99.90;;;;;;5107948;27;20095;-85
2023/10/23 02:02:36;;;;;;;4.50;2.78;;;7.00;99.90;;;;;;5107513;27;20030;-83
2023/10/23 02:05:03;;;;;;;4.85;3.05;;;9.00;99.90;;;;;;5123952;27;20302;-83
2023/10/23 02:07:29;;;;;;;3.70;2.80;;;6.90;99.90;;;;;;5106988;27;20035;-82
2023/10/23 02:09:58;;;;;;;3.60;2.33;;;6.90;99.90;;;;;;5124314;27;20355;-83
2023/10/23 02:12:24;;;;;;;3.67;2.63;;;8.90;99.90;;;;;;5129317;27;20038;-83
2023/10/23 02:14:52;;;;;;;4.78;2.92;;;7.70;99.90;;;;;;5106271;27;20091;-82
2023/10/23 02:17:21;;;;;;;4.88;3.22;;;7.70;99.90;;;;;;5127593;27;20128;-83
2023/10/23 02:19:47;;;;;;;3.88;3.08;;;6.90;99.90;;;;;;5107180;27;20034;-83
2023/10/23 02:22:13;;;;;;;4.80;3.47;;;9.00;99.90;;;;;;5113744;27;20118;-83
2023/10/23 02:24:38;;;;;;;4.00;3.30;;;6.90;99.90;;;;;;5106214;27;20489;-83
2023/10/23 02:27:04;;;;;;;3.08;2.72;;;6.90;99.90;;;;;;5113044;27;20116;-83
2023/10/23 02:29:30;;;;;;;4.15;3.00;;;6.60;99.90;;;;;;5130749;27;20235;-83
2023/10/23 02:31:55;;;;;;;4.03;3.22;;;6.80;99.90;;;;;;5113254;27;20130;-83
2023/10/23 02:34:21;;;;;;;6.32;3.53;;;6.90;99.90;;;;;;5113786;27;20169;-81
2023/10/23 02:36:47;;;;;;;4.50;3.35;;;8.00;99.90;;;;;;5130450;27;20079;-82
2023/10/23 02:39:13;;;;;;;3.13;2.80;;;6.80;99.90;;;;;;5123900;27;20054;-83
2023/10/23 02:41:38;;;;;;;4.00;3.60;;;5.80;99.90;;;;;;5130738;27;20062;-82
2023/10/23 02:44:05;;;;;;;3.50;3.17;;;6.80;99.90;;;;;;5091880;27;20023;-82
2023/10/23 02:46:35;;;;;;;3.58;3.28;;;6.80;99.90;;;;;;5106268;27;20031;-82
2023/10/23 02:49:02;;;;;;;4.07;3.67;;;8.40;99.90;;;;;;5131751;27;20074;-82
2023/10/23 02:51:28;;;;;;;5.75;3.42;;;8.00;99.90;;;;;;5128319;27;20042;-82
2023/10/23 02:53:54;;;;;;;5.35;3.40;;;7.90;99.90;;;;;;5121576;27;20038;-82
2023/10/23 02:56:20;;;;;;;6.35;3.90;;;6.80;99.90;;;;;;5132223;27;20038;-82
2023/10/23 02:58:45;;;;;;;8.48;4.13;;;8.40;99.90;;;;;;5112474;27;20072;-82
2023/10/23 03:01:30;;;;;;;4.32;3.90;;;9.00;99.90;;;;;;5128829;27;20037;-82
2023/10/23 03:03:55;;;;;;;;;;;7.80;99.90;;;;;;5131277;27;20072;-82
2023/10/23 03:06:21;;;;;;;4.15;3.53;;;6.60;99.90;;;;;;5129014;27;19919;-82
2023/10/23 03:08:47;;;;;;;5.63;3.22;;;6.70;99.90;;;;;;5130064;27;20421;-82
2023/10/23 03:11:12;;;;;;;3.78;3.42;;;8.20;99.90;;;;;;5110697;27;20130;-82
2023/10/23 03:13:38;;;;;;;4.07;3.78;;;6.50;99.90;;;;;;5128072;27;20110;-82
2023/10/23 03:16:04;;;;;;;5.68;3.28;;;6.60;99.90;;;;;;5109584;27;20505;-82
2023/10/23 03:18:29;;;;;;;5.03;4.32;;;6.70;99.90;;;;;;5108444;27;20535;-83
2023/10/23 03:21:00;;;;;;;5.63;4.05;;;6.60;99.90;;;;;;5108160;27;20027;-82
2023/10/23 03:23:28;;;;;;;4.80;4.30;;;4.80;99.90;;;;;;5128912;27;20035;-83
2023/10/23 03:25:53;;;;;;;6.30;4.22;;;8.50;99.90;;;;;;5129250;27;20039;-83
2023/10/23 03:28:19;;;;;;;4.90;4.30;;;8.60;99.90;;;;;;5113254;27;20390;-83
2023/10/23 03:30:45;;;;;;;6.20;3.92;;;6.60;99.90;;;;;;5110189;27;20641;-83
2023/10/23 03:33:10;;;;;;;15.90;4.30;;;6.60;99.90;;;;;;5110003;27;20042;-83
2023/10/23 03:35:41;;;;;;;4.88;4.32;;;6.60;99.90;;;;;;5130024;27;20027;-83
2023/10/23 03:38:07;;;;;;;5.47;3.63;;;6.50;99.90;;;;;;5112472;27;20057;-82
2023/10/23 03:40:33;;;;;;;4.22;3.92;;;7.90;99.90;;;;;;5122711;27;20059;-82
2023/10/23 03:42:58;;;;;;;4.13;3.72;;;8.20;99.90;;;;;;5113985;27;20103;-82
2023/10/23 03:45:24;;;;;;;4.88;4.25;;;8.00;99.90;;;;;;5105095;27;20407;-82
2023/10/23 03:47:49;;;;;;;5.90;4.55;;;6.50;99.90;;;;;;5112408;27;20107;-82
2023/10/23 03:50:15;;;;;;;4.82;3.92;;;6.50;99.90;;;;;;5122807;27;20072;-82
2023/10/23 03:52:41;;;;;;;4.78;4.25;;;7.70;99.90;;;;;;5112259;27;20092;-83
2023/10/23 03:55:07;;;;;;;4.88;4.47;;;8.00;99.90;;;;;;5130427;27;20039;-83
2023/10/23 03:57:32;;;;;;;4.65;4.18;;;6.50;99.90;;;;;;5133227;27;20846;-82
2023/10/23 03:59:58;;;;;;;7.47;5.10;;;6.50;99.90;;;;;;5116438;27;20039;-83
2023/10/23 04:02:24;;;;;;;5.20;4.30;;;6.50;99.90;;;;;;5126800;27;20042;-82
2023/10/23 04:04:49;;;;;;;4.88;4.00;;;8.50;99.90;;;;;;5110961;27;20478;-83
2023/10/23 04:07:15;;;;;;;7.38;4.63;;;6.50;99.90;;;;;;5131368;27;20482;-83
2023/10/23 04:09:41;;;;;;;4.85;4.38;;;8.30;99.90;;;;;;5133512;27;20041;-82
2023/10/23 04:12:07;;;;;;;4.88;4.38;;;6.40;99.90;;;;;;5113720;27;20095;-82
2023/10/23 04:14:32;;;;;;;4.28;3.92;;;6.40;99.90;;;;;;5110134;27;20046;-81
2023/10/23 04:16:58;;;;;;;5.07;4.57;;;6.40;99.90;;;;;;5132200;27;20042;-82
2023/10/23 04:19:24;;;;;;;5.70;4.65;;;6.70;99.90;;;;;;5116276;27;20085;-83
2023/10/23 04:21:49;;;;;;;4.53;4.13;;;7.30;99.90;;;;;;5113645;27;20031;-83
2023/10/23 04:24:15;;;;;;;5.00;4.50;;;8.20;99.90;;;;;;5111068;27;20507;-83
2023/10/23 04:26:40;;;;;;;5.57;4.63;;;7.80;99.90;;;;;;5125416;27;20030;-83
2023/10/23 04:29:06;;;;;;;6.82;4.65;;;8.20;99.90;;;;;;5115489;27;20042;-83
2023/10/23 04:31:32;;;;;;;5.47;4.85;;;6.60;99.90;;;;;;5129350;27;20121;-82
2023/10/23 04:33:57;;;;;;;5.20;4.50;;;6.30;99.90;;;;;;5113394;27;20525;-82
2023/10/23 04:36:23;;;;;;;5.45;4.40;;;8.00;99.90;;;;;;5125407;27;20050;-83
2023/10/23 04:38:48;;;;;;;6.13;4.95;;;6.30;99.90;;;;;;5115548;27;20035;-82
2023/10/23 04:41:14;;;;;;;6.40;4.53;;;6.20;99.90;;;;;;5125738;27;20051;-82
2023/10/23 04:43:41;;;;;;;6.63;5.00;;;7.00;99.90;;;;;;5114096;27;20046;-82
2023/10/23 04:46:06;;;;;;;8.05;6.30;;;6.20;99.90;;;;;;5115508;27;20287;-82
2023/10/23 04:48:32;;;;;;;9.38;5.95;;;8.20;99.90;;;;;;5108516;27;20121;-82
2023/10/23 04:51:03;;;;;;;6.32;5.40;;;8.40;99.90;;;;;;5104037;27;20417;-82
2023/10/23 04:53:29;;;;;;;7.60;5.50;;;6.20;99.90;;;;;;5109680;27;20108;-82
2023/10/23 04:55:58;;;;;;;6.05;4.80;;;6.20;99.90;;;;;;5108558;27;20042;-83
2023/10/23 04:58:24;;;;;;;5.57;5.00;;;7.00;99.90;;;;;;5110056;27;20054;-83
2023/10/23 05:00:51;;;;;;;6.78;5.18;;;6.20;99.90;;;;;;5123606;27;20038;-81
2023/10/23 05:03:17;;;;;;;6.85;4.90;;;6.10;99.90;;;;;;5107678;27;20468;-82
2023/10/23 05:05:49;;;;;;;7.10;5.20;;;6.10;99.90;;;;;;5108872;27;20496;-83
2023/10/23 05:08:15;;;;;;;6.35;4.90;;;6.20;99.90;;;;;;5108017;27;20455;-83
2023/10/23 05:10:40;;;;;;;7.45;5.30;;;7.40;99.90;;;;;;5099852;27;20026;-83
2023/10/23 05:13:09;;;;;;;6.32;5.30;;;8.60;99.90;;;;;;5092768;27;20043;-82
2023/10/23 05:15:34;;;;;;;6.10;5.00;;;6.10;99.90;;;;;;5124226;27;20041;-84
2023/10/23 05:18:00;;;;;;;7.70;5.43;;;7.80;99.90;;;;;;5124566;27;20043;-83
2023/10/23 05:20:26;;;;;;;7.60;4.82;;;6.10;99.90;;;;;;5128443;27;20047;-84
2023/10/23 05:22:51;;;;;;;7.00;5.40;;;6.20;99.90;;;;;;5127486;27;20074;-84
2023/10/23 05:25:17;;;;;;;5.72;5.22;;;8.00;99.90;;;;;;5115077;27;20485;-82
2023/10/23 05:27:43;;;;;;;7.97;5.32;;;4.60;99.90;;;;;;5106132;27;20042;-83
2023/10/23 05:30:09;;;;;;;6.80;5.68;;;6.10;99.90;;;;;;5115138;27;20052;-83
2023/10/23 05:32:35;;;;;;;9.10;5.40;;;6.10;99.90;;;;;;5129941;27;20715;-83
2023/10/23 05:35:01;;;;;;;7.22;4.85;;;8.00;99.90;;;;;;5107657;27;20038;-83
2023/10/23 05:37:27;;;;;;;6.82;5.38;;;5.90;99.90;;;;;;5115198;27;20052;-83
2023/10/23 05:39:53;;;;;;;7.40;5.82;;;6.00;99.90;;;;;;5127991;27;20506;-82
2023/10/23 05:42:19;;;;;;;8.95;5.93;;;7.60;99.90;;;;;;5111896;27;20057;-83
2023/10/23 05:44:44;;;;;;;7.97;5.47;;;5.90;99.90;;;;;;5128146;27;20031;-82
2023/10/23 05:47:10;;;;;;;7.40;5.55;;;7.10;99.90;;;;;;5103597;27;20408;-83
2023/10/23 05:49:35;;;;;;;7.20;5.38;;;6.80;99.90;;;;;;5131161;27;20030;-82
2023/10/23 05:52:01;;;;;;;8.60;6.25;;;7.80;99.90;;;;;;5122253;27;20035;-82
2023/10/23 05:54:27;;;;;;;10.15;6.15;;;5.90;99.90;;;;;;5114656;27;20080;-83
2023/10/23 05:56:52;;;;;;;6.57;5.47;;;5.80;99.90;;;;;;5113569;27;20042;-83
2023/10/23 05:59:18;;;;;;;8.60;5.93;;;7.60;99.90;;;;;;5132251;27;20039;-83
2023/10/23 06:01:44;;;;;;;6.13;5.20;;;6.90;99.90;;;;;;5146599;27;20051;-81
2023/10/23 06:04:09;;;;;;;7.43;5.40;;;5.80;99.90;;;;;;5137391;27;20030;-81
2023/10/23 06:06:35;;;;;;;6.13;5.57;;;8.30;99.90;;;;;;5127079;27;20398;-83
2023/10/23 06:09:00;;;;;;;6.60;6.00;;;5.70;99.90;;;;;;5107795;27;20522;-83
2023/10/23 06:11:26;;;;;;;7.30;5.43;;;5.80;99.90;;;;;;5105979;27;20153;-82
2023/10/23 06:13:52;;;;;;;6.22;5.40;;;5.80;99.90;;;;;;5123189;27;20039;-82
2023/10/23 06:16:17;;;;;;;7.55;6.00;;;5.80;99.90;;;;;;5123275;27;20070;-82
2023/10/23 06:18:43;;;;;;;5.90;5.40;;;5.80;99.90;;;;;;5122196;27;20141;-81
2023/10/23 06:21:09;;;;;;;6.25;5.70;;;5.70;99.90;;;;;;5104548;27;20387;-82
2023/10/23 06:23:35;;;;;;;6.70;5.68;;;5.70;99.90;;;;;;5122789;27;20145;-83
2023/10/23 06:26:03;;;;;;;6.80;5.72;;;5.70;99.90;;;;;;5105236;27;20035;-83
2023/10/23 06:28:33;;;;;;;5.72;5.22;;;5.70;99.90;;;;;;5121649;27;20475;-83
2023/10/23 06:31:06;;;;;;;6.90;5.78;;;5.70;99.90;;;;;;5106753;27;20038;-82
2023/10/23 06:33:32;;;;;;;5.75;5.25;;;5.70;99.90;;;;;;5105974;27;20051;-82
2023/10/23 06:35:59;;;;;;;5.53;5.03;;;5.70;99.90;;;;;;5137836;27;20574;-82
2023/10/23 06:38:25;;;;;;;7.53;5.38;;;5.70;99.90;;;;;;5106836;27;20035;-83
2023/10/23 06:40:51;;;;;;;6.10;5.50;;;5.70;99.90;;;;;;5106516;27;20533;-83
2023/10/23 06:43:16;;;;;;;6.55;5.95;;;5.60;99.90;;;;;;5124574;27;20080;-83
2023/10/23 06:45:43;;;;;;;6.75;6.13;;;7.00;99.90;;;;;;5105577;27;20039;-82
2023/10/23 06:48:09;;;;;;;6.05;5.55;;;5.60;99.90;;;;;;5123796;27;20038;-81
2023/10/23 06:50:35;;;;;;;8.80;5.95;;;5.70;99.90;;;;;;5105140;27;20556;-82
2023/10/23 06:53:00;;;;;;;6.60;6.00;;;5.70;99.90;;;;;;5106543;27;20414;-83
2023/10/23 06:55:27;;;;;;;6.57;5.95;;;5.70;99.90;;;;;;5122423;27;20548;-82
2023/10/23 06:57:54;;;;;;;8.50;5.90;;;5.60;99.90;;;;;;5122902;27;20043;-82
2023/10/23 07:00:20;;;;;;;8.25;7.30;;;5.70;99.90;;;;;;5123903;27;20047;-82
2023/10/23 07:02:50;;;;;;;12.65;9.45;;;5.70;99.90;;;;;;5109687;27;20112;-80
2023/10/23 07:05:16;;;;;;;10.32;7.70;;;5.70;99.90;;;;;;5106714;27;20046;-79
2023/10/23 07:07:42;;;;;;;7.93;7.10;;;5.70;99.90;;;;;;5113287;27;20031;-84
2023/10/23 07:10:08;;;;;;;8.70;7.28;;;5.60;99.90;;;;;;5110330;27;20042;-79
2023/10/23 07:12:36;;;;;;;6.80;6.10;;;5.70;99.90;;;;;;5109439;27;20121;-82
2023/10/23 07:15:05;;;;;;;7.28;5.85;;;5.60;99.90;;;;;;5127403;27;20051;-81
2023/10/23 07:17:34;;;;;;;9.02;5.22;;;5.70;99.90;;;;;;5127375;27;20129;-77
2023/10/23 07:20:06;;;;;;;6.13;5.63;;;5.70;99.90;;;;;;5129012;27;20050;-83
2023/10/23 07:22:33;;;;;;;5.65;5.20;;;5.80;99.90;;;;;;5074148;27;20035;-78
2023/10/23 07:25:02;;;;;;;6.47;5.80;;;5.80;99.90;;;;;;5109980;27;20111;-82
2023/10/23 07:27:31;;;;;;;6.82;6.25;;;5.80;99.90;;;;;;5109223;27;20035;-82
2023/10/23 07:29:56;;;;;;;6.32;5.72;;;5.70;99.90;;;;;;5088689;27;20043;-79
2023/10/23 07:32:23;;;;;;;6.75;5.70;;;7.90;99.90;;;;;;5107407;27;20121;-84
2023/10/23 07:34:49;;;;;;;6.15;5.57;;;5.80;99.90;;;;;;5113170;27;20042;-86
2023/10/23 07:37:18;;;;;;;5.95;5.45;;;8.00;99.90;;;;;;5117536;27;20080;-81
2023/10/23 07:39:47;;;;;;;5.63;5.13;;;6.50;99.90;;;;;;5083030;27;20055;-78
2023/10/23 07:42:31;;;;;;;6.30;5.70;;;8.20;99.90;;;;;;5117138;27;20069;-80
2023/10/23 07:44:57;;;;;;;5.95;5.45;;;8.30;99.90;;;;;;5113257;27;20475;-78
2023/10/23 07:47:24;;;;;;;7.22;6.00;;;6.00;99.90;;;;;;5128636;27;20398;-81
2023/10/23 07:49:50;;;;;;;6.57;5.80;;;6.00;99.90;;;;;;5112870;27;20043;-85
2023/10/23 07:52:17;;;;;;;7.60;6.18;;;7.70;99.90;;;;;;5110427;27;20051;-81
2023/10/23 07:54:45;;;;;;;7.13;6.30;;;6.20;99.90;;;;;;5105839;27;20078;-79
2023/10/23 07:57:11;;;;;;;7.25;5.90;;;6.10;99.90;;;;;;5107499;27;20075;-85
2023/10/23 07:59:39;;;;;;;6.78;6.13;;;6.90;99.90;;;;;;5111940;27;20121;-83
2023/10/23 08:02:07;;;;;;;9.25;7.20;;;6.20;99.90;;;;;;5091073;28;20039;-83
2023/10/23 08:04:33;;;;;;;11.45;8.50;;;6.20;99.90;;;;;;5111077;27;20050;-84
2023/10/23 08:07:15;;;;;;;11.82;8.23;;;6.30;99.90;;;;;;5108169;28;20066;-84
2023/10/23 08:09:42;;;;;;;16.02;9.93;;;6.30;99.90;;;;;;5103664;27;20052;-85
2023/10/23 08:12:08;;;;;;;11.52;8.95;;;8.20;99.90;;;;;;5109057;27;20080;-83
2023/10/23 08:14:34;;;;;;;9.43;7.05;;;4.80;99.90;;;;;;5108810;27;20081;-82
2023/10/23 08:17:00;;;;;;;12.13;9.35;;;6.50;99.90;;;;;;5111703;27;20039;-80
2023/10/23 08:19:26;;;;;;;12.05;9.52;;;7.40;99.90;;;;;;5127489;27;20402;-83
2023/10/23 08:21:52;;;;;;;10.55;8.80;;;8.40;99.90;;;;;;5121006;27;20509;-83
2023/10/23 08:24:17;;;;;;;11.93;10.23;;;7.60;99.90;;;;;;5106507;27;20051;-79
2023/10/23 08:26:43;;;;;;;9.88;8.57;;;7.20;99.90;;;;;;5089255;27;20177;-80
2023/10/23 08:29:32;;;;;;;11.98;9.25;;;8.50;99.90;;;;;;5128769;27;20038;-81
2023/10/23 08:32:03;;;;;;;13.52;10.88;;;6.80;99.90;;;;;;5123595;27;20055;-81
2023/10/23 08:34:32;;;;;;;10.60;9.60;;;6.90;99.90;;;;;;5121586;27;20072;-80
2023/10/23 08:36:59;;;;;;;13.25;10.82;;;;;;;;;;5106353;28;20072;-83
2023/10/23 08:39:26;;;;;;;16.98;10.25;;;7.00;99.90;;;;;;5100143;27;20071;-84
2023/10/23 08:41:57;;;;;;;11.20;10.10;;;9.00;99.90;;;;;;5119518;27;20068;-82
2023/10/23 08:44:22;;;;;;;14.43;9.80;;;9.20;99.90;;;;;;5108074;27;20087;-83
2023/10/23 08:46:49;;;;;;;17.02;10.77;;;8.90;99.90;;;;;;5104287;27;20038;-83
2023/10/23 08:49:16;;;;;;;16.85;9.85;;;7.50;99.90;;;;;;5104779;27;20049;-82
2023/10/23 08:51:45;;;;;;;13.30;10.18;;;8.10;99.90;;;;;;5108187;27;20051;-85
2023/10/23 08:54:16;;;;;;;13.13;10.35;;;7.60;99.90;;;;;;5109453;27;20043;-84
2023/10/23 08:56:43;;;;;;;12.20;9.00;;;8.10;99.90;;;;;;5105660;27;20526;-81
2023/10/23 08:59:16;;;;;;;11.77;10.30;;;7.70;99.90;;;;;;5105910;27;20043;-84
2023/10/23 09:01:48;;;;;;;10.82;9.73;;;9.40;99.90;;;;;;5123168;27;20042;-81
2023/10/23 09:04:13;;;;;;;12.32;10.95;;;9.20;99.90;;;;;;5105015;27;20085;-84
2023/10/23 09:06:42;;;;;;;14.15;10.00;;;7.80;99.90;;;;;;5124707;27;20035;-83
2023/10/23 09:09:08;;;;;;;12.27;10.18;;;8.10;99.90;;;;;;5108408;27;20039;-81
2023/10/23 09:11:41;;;;;;;14.30;10.80;;;8.00;99.90;;;;;;5128913;27;20038;-79
2023/10/23 09:14:07;;;;;;;11.10;9.85;;;9.40;99.90;;;;;;5127464;27;20266;-81
2023/10/23 09:16:33;;;;;;;14.60;9.82;;;8.10;99.90;;;;;;5106663;27;20035;-83
2023/10/23 09:18:59;;;;;;;13.35;10.02;;;9.10;99.90;;;;;;5108673;27;20195;-81
2023/10/23 09:21:25;;;;;;;14.93;10.80;;;8.30;99.90;;;;;;5108047;27;20047;-82
2023/10/23 09:24:00;;;;;;;10.93;8.88;;;8.30;99.90;;;;;;5103786;27;20039;-83
2023/10/23 09:26:26;;;;;;;11.00;9.57;;;8.40;99.90;;;;;;5105585;27;20051;-84
2023/10/23 09:28:52;;;;;;;12.27;8.90;;;8.50;99.90;;;;;;5108624;27;20035;-85
2023/10/23 09:31:20;;;;;;;11.93;8.52;;;8.60;99.90;;;;;;5108330;27;20039;-84
2023/10/23 09:33:47;;;;;;;11.85;8.10;;;8.60;99.90;;;;;;5104859;27;20066;-76
2023/10/23 09:36:13;;;;;;;9.15;7.70;;;8.70;99.90;;;;;;5104781;27;20059;-84
2023/10/23 09:39:00;;;;;;;8.38;7.57;;;10.40;99.90;;;;;;5106410;27;20035;-82
2023/10/23 09:41:27;;;;;;;10.25;7.32;;;8.90;99.90;;;;;;5107411;27;20470;-83
2023/10/23 09:43:56;;;;;;;10.15;7.28;;;11.00;99.90;;;;;;5104095;27;20627;-84
2023/10/23 09:46:25;;;;;;;12.50;7.00;;;9.60;99.90;;;;;;5103990;27;20043;-80
2023/10/23 09:48:52;;;;;;;8.05;7.05;;;9.70;99.90;;;;;;5104378;27;20128;-83
2023/10/23 09:51:19;;;;;;;7.35;5.88;;;9.60;99.90;;;;;;5104362;27;20051;-83
2023/10/23 09:54:15;;;;;;;7.70;5.93;;;9.20;99.90;;;;;;5106428;27;20107;-84
2023/10/23 09:56:48;;;;;;;8.48;4.90;;;9.30;99.90;;;;;;5105622;27;20026;-84
2023/10/23 09:59:17;;;;;;;6.40;4.93;;;9.40;99.90;;;;;;5103639;27;20050;-86
2023/10/23 10:01:50;;;;;;;5.30;4.75;;;11.00;99.90;;;;;;5123871;27;20091;-79
2023/10/23 10:04:28;;;;;;;8.63;5.10;;;9.50;99.90;;;;;;5108024;27;20039;-83
2023/10/23 10:07:01;;;;;;;4.13;3.72;;;9.60;99.90;;;;;;5103138;27;20043;-84
2023/10/23 10:09:28;;;;;;;4.43;2.95;;;9.70;99.90;;;;;;5104182;27;20043;-84
2023/10/23 10:11:55;;;;;;;7.10;3.60;;;9.80;99.90;;;;;;5106379;27;20039;-84
2023/10/23 10:14:25;;;;;;;3.22;2.75;;;10.50;99.90;;;;;;5123564;27;20104;-84
2023/10/23 10:16:56;;;;;;;3.10;2.38;;;11.30;99.90;;;;;;5113092;27;20371;-85
2023/10/23 10:19:24;;;;;;;7.68;3.10;;;10.60;99.90;;;;;;5087335;27;20074;-82
2023/10/23 10:22:23;;;;;;;3.80;2.63;;;10.80;99.90;;;;;;5102681;27;20087;-84
2023/10/23 10:24:49;;;;;;;5.97;3.00;;;10.30;99.90;;;;;;5106486;27;20103;-83
2023/10/23 10:27:15;;;;;;;8.82;3.80;;;9.60;99.90;;;;;;5106351;27;20038;-81
2023/10/23 10:29:41;;;;;;;4.88;3.70;;;10.40;99.90;;;;;;5104727;27;20053;-82
2023/10/23 10:32:11;;;;;;;8.57;3.83;;;10.50;99.90;;;;;;5103185;27;20046;-81
2023/10/23 10:34:53;;;;;;;5.00;3.38;;;10.90;99.90;;;;;;5102948;27;20043;-81
2023/10/23 10:37:22;;;;;;;4.15;3.30;;;10.70;99.90;;;;;;5104110;27;20054;-81
2023/10/23 10:39:50;;;;;;;6.70;4.00;;;10.80;99.90;;;;;;5105756;27;20051;-81
2023/10/23 10:42:26;;;;;;;4.50;3.33;;;11.40;99.90;;;;;;5106145;27;20099;-78
2023/10/23 10:45:20;;;;;;;5.63;3.88;;;11.00;99.90;;;;;;5120199;27;20059;-81
2023/10/23 10:47:53;;;;;;;6.72;3.50;;;11.10;99.90;;;;;;5126340;27;20132;-79
2023/10/23 10:50:46;;;;;;;5.18;3.28;;;11.20;99.90;;;;;;5124873;27;20558;-83
2023/10/23 10:53:14;;;;;;;5.55;2.70;;;11.30;99.90;;;;;;5100473;27;20043;-80
2023/10/23 10:55:47;;;;;;;4.55;2.95;;;12.70;99.90;;;;;;5104951;27;20043;-81
2023/10/23 10:58:13;;;;;;;3.35;2.75;;;12.40;99.90;;;;;;5107728;27;20043;-85
2023/10/23 11:00:39;;;;;;;3.72;2.88;;;13.10;99.90;;;;;;5103957;27;20478;-80
2023/10/23 11:03:06;;;;;;;4.32;3.65;;;11.50;99.90;;;;;;5102032;27;20096;-79
2023/10/23 11:05:32;;;;;;;4.22;2.90;;;11.40;99.90;;;;;;5102829;27;20046;-80
2023/10/23 11:08:00;;;;;;;4.78;2.92;;;12.40;99.90;;;;;;5106312;27;20070;-85
2023/10/23 11:10:26;;;;;;;4.30;3.22;;;11.70;99.90;;;;;;5105652;27;20543;-84
2023/10/23 11:12:52;;;;;;;3.65;3.08;;;10.90;99.90;;;;;;5102350;27;20286;-79
2023/10/23 11:15:18;;;;;;;6.03;2.20;;;12.70;99.90;;;;;;5120098;27;20043;-82
2023/10/23 11:17:44;;;;;;;5.72;2.80;;;11.90;99.90;;;;;;5104335;27;20043;-82
2023/10/23 11:20:12;;;;;;;4.68;2.88;;;12.10;99.90;;;;;;5123002;27;20057;-82
2023/10/23 11:22:49;;;;;;;2.60;2.40;;;12.10;99.90;;;;;;5121649;27;20072;-82
2023/10/23 11:25:15;;;;;;;7.20;3.35;;;12.20;99.90;;;;;;5085392;27;20499;-83
2023/10/23 11:27:49;;;;;;;3.80;2.85;;;12.20;99.90;;;;;;5104737;27;20072;-81
2023/10/23 11:30:15;;;;;;;3.87;3.03;;;12.20;99.90;;;;;;5105394;27;20070;-82
2023/10/23 11:32:44;;;;;;;4.90;2.42;;;12.30;99.90;;;;;;5120899;27;20078;-79
2023/10/23 11:35:10;;;;;;;5.80;2.72;;;12.30;99.90;;;;;;5102589;27;20119;-82
2023/10/23 11:37:48;;;;;;;7.72;2.78;;;12.10;99.90;;;;;;5101833;27;20138;-79
2023/10/23 11:40:19;;;;;;;3.08;2.45;;;12.60;99.90;;;;;;5119345;27;20046;-78
2023/10/23 11:42:53;;;;;;;4.70;1.90;;;12.40;99.90;;;;;;5088474;27;20039;-80
2023/10/23 11:45:19;;;;;;;4.82;1.90;;;12.50;99.90;;;;;;5106607;28;20039;-78
2023/10/23 11:47:46;;;;;;;7.13;1.85;;;12.60;99.90;;;;;;5139639;27;20411;-83
2023/10/23 11:50:13;;;;;;;2.20;1.38;;;12.60;99.90;;;;;;5107715;28;20039;-81
2023/10/23 11:52:46;;;;;;;2.28;1.80;;;12.60;99.90;;;;;;5103063;27;20039;-78
2023/10/23 11:55:14;;;;;;;2.83;1.20;;;12.70;99.90;;;;;;5105947;27;20243;-80
2023/10/23 11:57:46;;;;;;;3.72;1.70;;;12.60;99.90;;;;;;5103873;27;20462;-79
2023/10/23 12:00:17;;;;;;;3.50;1.20;;;13.50;99.90;;;;;;5101760;28;20438;-85
2023/10/23 12:02:45;;;;;;;2.22;1.00;;;12.70;99.90;;;;;;5120932;27;20039;-82
2023/10/23 12:05:22;;;;;;;3.58;1.30;;;12.70;99.90;;;;;;5105649;27;20078;-83
2023/10/23 12:07:54;;;;;;;3.53;1.40;;;12.70;99.90;;;;;;5102615;27;20050;-85
2023/10/23 12:10:24;;;;;;;2.13;1.50;;;12.80;99.90;;;;;;5119138;28;20055;-82
2023/10/23 12:12:52;;;;;;;4.57;1.95;;;12.80;99.90;;;;;;5103875;27;20047;-83
2023/10/23 12:15:18;;;;;;;3.08;1.70;;;12.90;99.90;;;;;;5105880;27;20565;-79
2023/10/23 12:17:44;;;;;;;3.92;1.85;;;12.90;99.90;;;;;;5106379;27;20043;-82
2023/10/23 12:20:11;;;;;;;5.78;2.20;;;12.90;99.90;;;;;;5113139;27;20046;-79
2023/10/23 12:22:41;;;;;;;4.55;1.83;;;14.10;99.90;;;;;;5112722;27;20046;-80
2023/10/23 12:25:08;;;;;;;3.58;1.92;;;12.90;99.90;;;;;;5109456;27;20080;-81
2023/10/23 12:27:35;;;;;;;4.95;1.58;;;13.00;99.90;;;;;;5100525;27;20054;-82
2023/10/23 12:30:05;;;;;;;3.35;1.58;;;13.10;99.90;;;;;;5109148;27;20034;-86
2023/10/23 12:32:32;;;;;;;3.55;1.40;;;13.10;99.90;;;;;;5109402;27;20042;-83
2023/10/23 12:34:58;;;;;;;2.28;1.80;;;14.50;99.90;;;;;;5105514;27;20027;-83
2023/10/23 12:37:26;;;;;;;4.05;2.45;;;13.10;99.90;;;;;;5105811;27;20057;-85
2023/10/23 12:39:54;;;;;;;3.25;2.72;;;13.10;99.90;;;;;;5108105;27;20062;-84
2023/10/23 12:42:20;;;;;;;6.05;2.80;;;13.10;99.90;;;;;;5108224;27;20127;-80
2023/10/23 12:44:47;;;;;;;5.60;3.20;;;13.20;99.90;;;;;;5106504;27;20042;-80
2023/10/23 12:47:13;;;;;;;4.60;3.05;;;13.10;99.90;;;;;;5105840;27;20039;-85
2023/10/23 12:49:39;;;;;;;5.85;3.30;;;13.10;99.90;;;;;;5106066;27;20446;-81
2023/10/23 12:52:07;;;;;;;4.88;3.80;;;13.20;99.90;;;;;;5108380;27;20474;-82
2023/10/23 12:54:33;;;;;;;5.22;4.40;;;13.10;99.90;;;;;;5091339;27;20095;-80